Time;durP1;ratioP1;P1;durP2;ratioP2;P2;SDS_P1;SDS_P2;PMS_P1;PMS_P2;Temp;Humidity;BMP_temperature;BMP_pressure;BME280_temperature;BME280_humidity;BME280_pressure;Samples;Min_cycle;Max_cycle;Signal;HPM_P1;HPM_P2
2021/08/30 00:01:50;;;;;;;25.73;21.20;;;;;;;;;;5033358;28;20913;-80
2021/08/30 00:04:16;;;;;;;24.53;20.63;;;;;;;;;;5033098;28;20507;-81
2021/08/30 00:06:42;;;;;;;26.37;20.87;;;;;;;;;;5015444;28;20790;-80
2021/08/30 00:09:09;;;;;;;30.00;23.30;;;;;;;;;;5032819;28;20853;-80
2021/08/30 00:11:35;;;;;;;29.70;21.90;;;;;;;;;;5015333;28;20420;-79
2021/08/30 00:14:01;;;;;;;26.23;21.60;;;;;;;;;;5015158;28;20429;-80
2021/08/30 00:16:27;;;;;;;30.73;23.80;;;;;;;;;;5033006;28;20417;-79
2021/08/30 00:18:53;;;;;;;29.50;23.37;;;;;;;;;;5032510;28;20501;-81
2021/08/30 00:21:19;;;;;;;31.47;23.80;;;;;;;;;;5033048;28;20417;-79
2021/08/30 00:23:45;;;;;;;23.57;21.10;;;;;;;;;;5032935;28;20833;-79
2021/08/30 00:26:11;;;;;;;29.60;22.10;;;;;;;;;;5033131;28;20424;-79
2021/08/30 00:28:37;;;;;;;34.17;23.60;;;;;;;;;;5032596;28;20413;-79
2021/08/30 00:31:03;;;;;;;29.53;23.60;;;;;;;;;;5015242;28;20425;-79
2021/08/30 00:33:29;;;;;;;34.43;25.63;;;;;;;;;;5032951;28;20421;-80
2021/08/30 00:35:55;;;;;;;33.57;25.13;;;;;;;;;;5015260;28;20491;-80
2021/08/30 00:38:21;;;;;;;36.63;26.63;;;;;;;;;;5033139;28;20508;-80
2021/08/30 00:40:47;;;;;;;32.77;26.87;;;;;;;;;;5032344;28;20964;-79
2021/08/30 00:43:13;;;;;;;33.37;25.77;;;;;;;;;;5032982;28;20571;-79
2021/08/30 00:45:39;;;;;;;29.33;26.03;;;;;;;;;;5032978;28;20777;-80
2021/08/30 00:48:06;;;;;;;35.17;26.67;;;;;;;;;;5032786;28;20418;-80
2021/08/30 00:50:32;;;;;;;32.83;26.77;;;;;;;;;;5034932;28;20424;-80
2021/08/30 00:52:58;;;;;;;42.37;28.03;;;;;;;;;;5019081;28;20881;-81
2021/08/30 00:55:24;;;;;;;34.63;28.13;;;;;;;;;;5036822;28;20781;-79
2021/08/30 00:57:50;;;;;;;35.20;28.43;;;;;;;;;;5036697;28;20795;-80
2021/08/30 01:00:17;;;;;;;37.87;28.77;;;;;;;;;;5036031;28;20856;-80
2021/08/30 01:02:44;;;;;;;37.60;30.00;;;;;;;;;;5019102;28;20618;-80
2021/08/30 01:05:11;;;;;;;35.77;27.33;;;;;;;;;;5036476;28;20927;-79
2021/08/30 01:07:49;;;;;;;37.27;28.40;;;;;;;;;;5036408;28;20412;-80
2021/08/30 01:10:18;;;;;;;40.13;28.90;;;;;;;;;;5036215;28;20421;-78
2021/08/30 01:12:46;;;;;;;31.97;27.47;;;;;;;;;;5036304;28;20409;-80
2021/08/30 01:15:15;;;;;;;38.17;28.93;;;;;;;;;;5036122;28;20384;-80
2021/08/30 01:17:41;;;;;;;38.00;27.13;;;;;;;;;;5036146;28;20491;-80
2021/08/30 01:20:11;;;;;;;36.97;26.80;;;;;;;;;;5035779;28;20445;-80
2021/08/30 01:22:39;;;;;;;33.80;27.60;;;;;;;;;;5036022;28;20456;-79
2021/08/30 01:25:06;;;;;;;42.90;27.90;;;;;;;;;;5035931;28;20440;-80
2021/08/30 01:27:32;;;;;;;43.97;29.03;;;;;;;;;;5035937;28;20775;-80
2021/08/30 01:30:04;;;;;;;33.20;27.30;;;;;;;;;;5035872;28;20416;-79
2021/08/30 01:32:36;;;;;;;37.23;30.23;;;;;;;;;;5036158;28;20420;-80
2021/08/30 01:35:03;;;;;;;39.57;31.00;;;;;;;;;;5036061;28;20405;-79
2021/08/30 01:37:30;;;;;;;43.73;30.23;;;;;;;;;;5035726;28;20471;-80
2021/08/30 01:39:56;;;;;;;42.37;32.20;;;;;;;;;;5035426;28;20506;-80
2021/08/30 01:42:22;;;;;;;38.00;30.77;;;;;;;;;;5035644;28;20388;-79
2021/08/30 01:44:49;;;;;;;43.50;30.13;;;;;;;;;;5035791;28;20419;-81
2021/08/30 01:47:15;;;;;;;40.20;30.40;;;;;;;;;;5035622;28;20405;-80
2021/08/30 01:49:42;;;;;;;40.17;29.93;;;;;;;;;;5035243;28;20430;-80
2021/08/30 01:52:09;;;;;;;39.30;31.20;;;;;;;;;;5035954;28;20411;-80
2021/08/30 01:54:35;;;;;;;41.23;31.90;;;;;;;;;;5035533;28;20779;-80
2021/08/30 01:57:01;;;;;;;41.63;32.87;;;;;;;;;;5035668;28;20408;-81
2021/08/30 02:02:12;;;;;;;40.43;31.30;;;;;;;;;;5034271;28;20447;-79
2021/08/30 02:04:38;;;;;;;41.87;31.97;;;;;;;;;;5035393;28;20437;-80
2021/08/30 02:07:06;;;;;;;43.30;31.60;;;;;;;;;;5035337;28;20416;-79
2021/08/30 02:09:32;;;;;;;42.27;32.00;;;;;;;;;;5034785;28;20894;-80
2021/08/30 02:11:58;;;;;;;41.50;30.80;;;;;;;;;;5017370;28;20902;-79
2021/08/30 02:14:24;;;;;;;50.60;35.53;;;;;;;;;;5035197;28;20387;-79
2021/08/30 02:16:51;;;;;;;47.90;34.83;;;;;;;;;;5035111;28;20785;-81
2021/08/30 02:19:39;;;;;;;42.53;30.53;;;;;;;;;;5034678;28;20435;-79
2021/08/30 02:22:11;;;;;;;48.93;32.40;;;;;;;;;;5035123;28;20419;-80
2021/08/30 02:24:39;;;;;;;40.90;31.93;;;;;;;;;;5034955;28;20799;-80
2021/08/30 02:27:09;;;;;;;38.47;31.23;;;;;;;;;;5034974;28;20408;-81
2021/08/30 02:29:54;;;;;;;46.27;31.37;;;;;;;;;;5034636;28;20456;-81
2021/08/30 02:32:21;;;;;;;43.50;30.53;;;;;;;;;;5034850;28;20428;-80
2021/08/30 02:34:51;;;;;;;46.50;30.53;;;;;;;;;;5034849;28;20899;-80
2021/08/30 02:37:17;;;;;;;41.00;30.20;;;;;;;;;;5034737;28;20397;-81
2021/08/30 02:39:47;;;;;;;38.57;28.27;;;;;;;;;;5034108;28;20913;-80
2021/08/30 02:42:14;;;;;;;42.40;29.27;;;;;;;;;;5034565;28;20496;-79
2021/08/30 02:44:40;;;;;;;42.30;30.87;;;;;;;;;;5017360;28;20875;-80
2021/08/30 02:47:06;;;;;;;40.90;29.43;;;;;;;;;;5034562;28;20776;-80
2021/08/30 02:49:32;;;;;;;39.30;30.00;;;;;;;;;;5034297;28;20431;-81
2021/08/30 02:52:04;;;;;;;48.73;33.80;;;;;;;;;;5034545;28;20409;-80
2021/08/30 02:54:31;;;;;;;45.30;32.40;;;;;;;;;;5034561;28;20405;-81
2021/08/30 02:56:57;;;;;;;50.87;33.00;;;;;;;;;;5034480;28;20413;-81
2021/08/30 02:59:23;;;;;;;45.07;33.63;;;;;;;;;;5033883;28;20929;-80
2021/08/30 03:01:49;;;;;;;44.80;31.10;;;;;;;;;;5034207;28;20977;-80
2021/08/30 03:04:15;;;;;;;49.80;33.93;;;;;;;;;;5034132;28;20496;-80
2021/08/30 03:06:42;;;;;;;52.20;36.33;;;;;;;;;;5034226;28;20417;-81
2021/08/30 03:09:08;;;;;;;45.20;34.93;;;;;;;;;;5033729;28;20536;-80
2021/08/30 03:11:36;;;;;;;46.53;36.03;;;;;;;;;;5034053;28;20420;-80
2021/08/30 03:14:02;;;;;;;44.87;34.10;;;;;;;;;;5033364;28;20416;-80
2021/08/30 03:16:29;;;;;;;46.83;35.67;;;;;;;;;;5033978;28;20412;-78
2021/08/30 03:18:57;;;;;;;56.30;36.53;;;;;;;;;;5015763;28;20434;-79
2021/08/30 03:21:25;;;;;;;50.60;36.97;;;;;;;;;;5034046;28;20409;-81
2021/08/30 03:23:52;;;;;;;47.50;35.80;;;;;;;;;;5015934;28;20467;-80
2021/08/30 03:26:18;;;;;;;50.03;34.90;;;;;;;;;;5033560;28;20409;-80
2021/08/30 03:28:44;;;;;;;46.43;36.00;;;;;;;;;;5033349;28;20495;-81
2021/08/30 03:31:11;;;;;;;57.63;35.47;;;;;;;;;;5016559;28;20466;-80
2021/08/30 03:33:37;;;;;;;45.83;35.30;;;;;;;;;;5033794;28;20417;-80
2021/08/30 03:36:04;;;;;;;48.47;35.10;;;;;;;;;;5016040;28;20423;-80
2021/08/30 03:38:30;;;;;;;41.57;33.57;;;;;;;;;;5033664;28;20475;-81
2021/08/30 03:40:57;;;;;;;51.07;37.90;;;;;;;;;;5032881;28;20466;-79
2021/08/30 03:43:23;;;;;;;54.07;36.47;;;;;;;;;;5032699;28;20464;-80
2021/08/30 03:45:49;;;;;;;44.00;33.13;;;;;;;;;;5032932;28;20504;-81
2021/08/30 03:48:15;;;;;;;49.77;35.20;;;;;;;;;;5032559;28;20437;-80
2021/08/30 03:50:41;;;;;;;47.80;35.43;;;;;;;;;;5032254;28;20455;-80
2021/08/30 03:53:08;;;;;;;52.73;37.20;;;;;;;;;;5032724;28;20413;-80
2021/08/30 03:55:34;;;;;;;48.30;35.57;;;;;;;;;;5032883;28;20415;-81
2021/08/30 03:58:01;;;;;;;47.10;36.23;;;;;;;;;;5032757;28;20409;-80
2021/08/30 04:00:28;;;;;;;52.03;38.37;;;;;;;;;;5031988;28;20865;-80
2021/08/30 04:02:54;;;;;;;48.97;36.00;;;;;;;;;;5032549;28;20471;-79
2021/08/30 04:05:23;;;;;;;54.90;37.67;;;;;;;;;;5032397;28;20819;-80
2021/08/30 04:07:50;;;;;;;46.57;35.37;;;;;;;;;;5032582;28;20380;-80
2021/08/30 04:10:16;;;;;;;48.17;37.50;;;;;;;;;;5014334;28;20432;-80
2021/08/30 04:12:42;;;;;;;52.03;39.00;;;;;;;;;;5032199;28;20894;-80
2021/08/30 04:15:09;;;;;;;53.70;39.67;;;;;;;;;;5032414;28;20417;-79
2021/08/30 04:17:35;;;;;;;56.20;40.30;;;;;;;;;;5032279;28;20848;-81
2021/08/30 04:20:01;;;;;;;53.67;39.37;;;;;;;;;;5031936;28;20479;-80
2021/08/30 04:22:27;;;;;;;51.93;40.10;;;;;;;;;;5032005;28;20425;-81
2021/08/30 04:24:53;;;;;;;57.57;39.60;;;;;;;;;;5033368;28;20404;-80
2021/08/30 04:27:19;;;;;;;50.53;36.50;;;;;;;;;;5035718;28;20413;-80
2021/08/30 04:29:44;;;;;;;52.57;39.17;;;;;;;;;;5035310;28;20921;-80
2021/08/30 04:32:12;;;;;;;52.93;37.77;;;;;;;;;;5017991;28;20417;-80
2021/08/30 04:34:38;;;;;;;52.80;38.50;;;;;;;;;;5035656;28;20423;-79
2021/08/30 04:37:04;;;;;;;44.83;37.03;;;;;;;;;;5035586;28;20413;-80
2021/08/30 04:39:30;;;;;;;44.90;35.63;;;;;;;;;;4996880;28;1103536;-79
2021/08/30 04:41:57;;;;;;;55.20;35.67;;;;;;;;;;5019240;28;20193;-80
2021/08/30 04:44:23;;;;;;;53.03;37.07;;;;;;;;;;5036734;28;20468;-81
2021/08/30 04:46:49;;;;;;;53.53;37.73;;;;;;;;;;5037020;28;20408;-81
2021/08/30 04:49:15;;;;;;;51.30;37.63;;;;;;;;;;5036488;28;20922;-81
2021/08/30 04:51:41;;;;;;;48.57;36.37;;;;;;;;;;5036986;28;20409;-81
2021/08/30 04:54:07;;;;;;;56.80;40.03;;;;;;;;;;5036806;28;20431;-81
2021/08/30 04:56:34;;;;;;;48.70;34.00;;;;;;;;;;5036762;28;20467;-80
2021/08/30 04:59:00;;;;;;;47.93;35.80;;;;;;;;;;5036159;28;20407;-82
2021/08/30 05:01:26;;;;;;;53.20;37.97;;;;;;;;;;5036130;28;20784;-80
2021/08/30 05:03:53;;;;;;;54.63;38.40;;;;;;;;;;5018743;28;20456;-80
2021/08/30 05:06:19;;;;;;;47.73;35.10;;;;;;;;;;5036376;28;20413;-80
2021/08/30 05:08:45;;;;;;;47.53;35.43;;;;;;;;;;5035937;28;20413;-79
2021/08/30 05:11:11;;;;;;;48.20;35.20;;;;;;;;;;5036240;28;20375;-81
2021/08/30 05:13:37;;;;;;;46.93;36.90;;;;;;;;;;5036256;28;20901;-80
2021/08/30 05:16:03;;;;;;;44.83;33.40;;;;;;;;;;5036426;28;20408;-79
2021/08/30 05:18:29;;;;;;;46.40;34.43;;;;;;;;;;5035988;28;20445;-80
2021/08/30 05:20:55;;;;;;;42.53;34.13;;;;;;;;;;5035753;28;20914;-81
2021/08/30 05:23:21;;;;;;;46.00;34.33;;;;;;;;;;5035998;28;20464;-81
2021/08/30 05:25:47;;;;;;;46.83;35.10;;;;;;;;;;5035988;28;20483;-82
2021/08/30 05:28:14;;;;;;;51.30;35.37;;;;;;;;;;5035886;28;20404;-80
2021/08/30 05:30:39;;;;;;;49.10;35.03;;;;;;;;;;5035521;28;20433;-77
2021/08/30 05:33:05;;;;;;;44.57;33.57;;;;;;;;;;5035525;28;20478;-77
2021/08/30 05:35:32;;;;;;;42.13;34.50;;;;;;;;;;5035662;28;20409;-77
2021/08/30 05:37:58;;;;;;;42.00;32.20;;;;;;;;;;5035685;28;20417;-77
2021/08/30 05:40:23;;;;;;;47.20;32.47;;;;;;;;;;5017489;28;20452;-77
2021/08/30 05:42:49;;;;;;;46.23;33.83;;;;;;;;;;5035756;28;20492;-78
2021/08/30 05:45:15;;;;;;;52.17;35.00;;;;;;;;;;5035206;28;20424;-77
2021/08/30 05:47:42;;;;;;;43.80;31.93;;;;;;;;;;5035798;28;20416;-77
2021/08/30 05:50:08;;;;;;;46.07;34.20;;;;;;;;;;5035254;28;20428;-77
2021/08/30 05:52:34;;;;;;;44.63;33.23;;;;;;;;;;5035670;28;20876;-77
2021/08/30 05:55:01;;;;;;;44.73;33.77;;;;;;;;;;5035588;28;20494;-77
2021/08/30 05:57:27;;;;;;;48.10;33.47;;;;;;;;;;5035435;28;20735;-77
2021/08/30 05:59:53;;;;;;;47.37;33.50;;;;;;;;;;5034909;28;20431;-77
2021/08/30 06:02:19;;;;;;;46.40;35.63;;;;;;;;;;5035333;28;20417;-77
2021/08/30 06:04:45;;;;;;;43.57;32.00;;;;;;;;;;5017850;28;20480;-77
2021/08/30 06:07:11;;;;;;;44.40;31.87;;;;;;;;;;5036080;28;20460;-77
2021/08/30 06:09:37;;;;;;;38.97;31.80;;;;;;;;;;5035157;28;20479;-77
2021/08/30 06:12:03;;;;;;;42.20;32.53;;;;;;;;;;5035289;28;20413;-77
2021/08/30 06:14:29;;;;;;;42.87;31.77;;;;;;;;;;5035211;28;20823;-77
2021/08/30 06:16:55;;;;;;;41.10;28.57;;;;;;;;;;5035155;28;20421;-76
2021/08/30 06:19:21;;;;;;;40.10;31.67;;;;;;;;;;5034646;28;20863;-77
2021/08/30 06:21:47;;;;;;;41.73;32.43;;;;;;;;;;5035053;28;20486;-77
2021/08/30 06:24:13;;;;;;;34.87;28.80;;;;;;;;;;5034967;28;20468;-77
2021/08/30 06:26:39;;;;;;;39.60;29.50;;;;;;;;;;5035168;28;20409;-77
2021/08/30 06:29:05;;;;;;;35.23;30.57;;;;;;;;;;5017348;28;20802;-78
2021/08/30 06:31:31;;;;;;;33.67;28.10;;;;;;;;;;5034899;28;20583;-78
2021/08/30 06:33:57;;;;;;;33.97;28.53;;;;;;;;;;5035036;28;20420;-77
2021/08/30 06:36:23;;;;;;;35.93;27.80;;;;;;;;;;5017418;28;20413;-77
2021/08/30 06:38:49;;;;;;;31.87;26.50;;;;;;;;;;5034821;28;20409;-76
2021/08/30 06:41:16;;;;;;;36.17;28.10;;;;;;;;;;5034726;28;20436;-77
2021/08/30 06:43:42;;;;;;;34.07;27.63;;;;;;;;;;5034547;28;20524;-77
2021/08/30 06:46:08;;;;;;;33.50;27.27;;;;;;;;;;5034660;28;20456;-77
2021/08/30 06:48:34;;;;;;;32.83;26.73;;;;;;;;;;5033511;28;20406;-77
2021/08/30 06:51:01;;;;;;;32.60;26.27;;;;;;;;;;5034646;28;20428;-77
2021/08/30 06:53:27;;;;;;;32.13;28.10;;;;;;;;;;5034772;28;20392;-77
2021/08/30 06:55:53;;;;;;;34.67;26.20;;;;;;;;;;5034512;28;20405;-77
2021/08/30 06:58:19;;;;;;;32.70;26.33;;;;;;;;;;5034527;28;20572;-77
2021/08/30 07:00:45;;;;;;;36.97;29.13;;;;;;;;;;5016299;28;20437;-82
2021/08/30 07:03:11;;;;;;;35.43;27.47;;;;;;;;;;5034315;28;20553;-82
2021/08/30 07:05:37;;;;;;;37.00;28.53;;;;;;;;;;5034192;28;20438;-81
2021/08/30 07:08:03;;;;;;;30.27;24.93;;;;;;;;;;5034274;28;20384;-80
2021/08/30 07:10:29;;;;;;;32.13;27.00;;;;;;;;;;5033831;28;20425;-80
2021/08/30 07:12:55;;;;;;;33.87;27.97;;;;;;;;;;5016438;28;20932;-80
2021/08/30 07:15:21;;;;;;;34.90;28.67;;;;;;;;;;5034149;28;20472;-81
2021/08/30 07:17:47;;;;;;;31.00;25.83;;;;;;;;;;5033865;28;20421;-81
2021/08/30 07:20:13;;;;;;;39.90;28.60;;;;;;;;;;5033496;28;20498;-79
2021/08/30 07:22:39;;;;;;;38.07;30.77;;;;;;;;;;5034050;28;20499;-80
2021/08/30 07:25:05;;;;;;;36.70;28.80;;;;;;;;;;5016118;28;20472;-80
2021/08/30 07:27:31;;;;;;;35.10;29.90;;;;;;;;;;5034270;28;20504;-80
2021/08/30 07:29:58;;;;;;;37.30;28.30;;;;;;;;;;5033628;28;20931;-80
2021/08/30 07:32:24;;;;;;;39.77;29.83;;;;;;;;;;5033957;28;20449;-81
2021/08/30 07:34:50;;;;;;;38.73;29.20;;;;;;;;;;5034046;28;20394;-82
2021/08/30 07:37:16;;;;;;;35.30;30.13;;;;;;;;;;5016126;28;20981;-81
2021/08/30 07:39:42;;;;;;;39.73;31.80;;;;;;;;;;5015693;28;20540;-80
2021/08/30 07:42:08;;;;;;;38.40;31.73;;;;;;;;;;5033488;28;20435;-82
2021/08/30 07:44:34;;;;;;;40.43;33.83;;;;;;;;;;5033868;28;20468;-82
2021/08/30 07:47:00;;;;;;;39.50;32.87;;;;;;;;;;5034214;28;20413;-82
2021/08/30 07:49:26;;;;;;;38.33;33.00;;;;;;;;;;5035157;28;20429;-82
2021/08/30 07:51:52;;;;;;;43.63;35.20;;;;;;;;;;5017581;28;20428;-83
2021/08/30 07:54:18;;;;;;;47.30;35.23;;;;;;;;;;5034768;28;20428;-83
2021/08/30 07:56:44;;;;;;;44.93;35.57;;;;;;;;;;5035308;28;20471;-82
2021/08/30 07:59:10;;;;;;;44.53;34.33;;;;;;;;;;5016302;28;20957;-82
2021/08/30 08:01:36;;;;;;;41.50;33.90;;;;;;;;;;5033893;28;20421;-83
2021/08/30 08:04:02;;;;;;;46.13;34.93;;;;;;;;;;5033652;28;20463;-84
2021/08/30 08:06:28;;;;;;;38.17;33.83;;;;;;;;;;5034196;28;20417;-82
2021/08/30 08:08:54;;;;;;;38.47;32.83;;;;;;;;;;5016000;28;20924;-82
2021/08/30 08:11:20;;;;;;;41.13;33.50;;;;;;;;;;5033743;28;20409;-80
2021/08/30 08:13:46;;;;;;;40.50;31.90;;;;;;;;;;5034200;28;20417;-83
2021/08/30 08:16:12;;;;;;;45.07;33.73;;;;;;;;;;5016371;28;20465;-83
2021/08/30 08:18:38;;;;;;;39.60;31.27;;;;;;;;;;5015986;28;20434;-83
2021/08/30 08:21:07;;;;;;;39.40;31.37;;;;;;;;;;5033266;28;20838;-81
2021/08/30 08:23:33;;;;;;;39.10;33.40;;;;;;;;;;5033109;28;20459;-82
2021/08/30 08:25:59;;;;;;;40.70;31.27;;;;;;;;;;5033003;28;20408;-81
2021/08/30 08:28:25;;;;;;;43.83;33.70;;;;;;;;;;5032843;28;20405;-84
2021/08/30 08:30:51;;;;;;;42.20;34.47;;;;;;;;;;5032822;28;20482;-82
2021/08/30 08:33:17;;;;;;;46.67;33.77;;;;;;;;;;5033123;28;20408;-82
2021/08/30 08:35:43;;;;;;;42.67;32.33;;;;;;;;;;5033031;28;20463;-82
2021/08/30 08:38:10;;;;;;;41.40;33.13;;;;;;;;;;5033136;28;20419;-83
2021/08/30 08:40:36;;;;;;;43.53;33.57;;;;;;;;;;5032325;28;20551;-82
2021/08/30 08:43:02;;;;;;;36.07;31.67;;;;;;;;;;5033006;28;20492;-84
2021/08/30 08:45:28;;;;;;;37.50;32.23;;;;;;;;;;5033174;28;20405;-84
2021/08/30 08:47:54;;;;;;;34.07;30.13;;;;;;;;;;5015799;28;20413;-82
2021/08/30 08:50:22;;;;;;;40.30;28.83;;;;;;;;;;5032641;28;20482;-83
2021/08/30 08:52:48;;;;;;;33.93;29.00;;;;;;;;;;5033056;28;20426;-83
2021/08/30 08:55:15;;;;;;;33.40;26.17;;;;;;;;;;5033022;28;20448;-81
2021/08/30 08:57:41;;;;;;;30.73;27.27;;;;;;;;;;5033157;28;20390;-81
2021/08/30 09:00:09;;;;;;;26.93;24.20;;;;;;;;;;5032630;28;20419;-82
2021/08/30 09:02:35;;;;;;;28.90;25.90;;;;;;;;;;5032684;28;20415;-83
2021/08/30 09:05:02;;;;;;;28.20;24.93;;;;;;;;;;5032809;28;20757;-83
2021/08/30 09:07:36;;;;;;;28.73;25.60;;;;;;;;;;5032863;28;20376;-82
2021/08/30 09:10:03;;;;;;;27.80;24.17;;;;;;;;;;5032699;28;20970;-82
2021/08/30 09:12:29;;;;;;;31.00;25.60;;;;;;;;;;5036352;28;20420;-81
2021/08/30 09:14:55;;;;;;;29.10;24.63;;;;;;;;;;5036378;28;20390;-83
2021/08/30 09:17:21;;;;;;;28.27;23.03;;;;;;;;;;5036368;28;20816;-82
2021/08/30 09:19:47;;;;;;;25.63;23.00;;;;;;;;;;5018219;28;20440;-83
2021/08/30 09:22:13;;;;;;;26.80;23.90;;;;;;;;;;5036298;28;20744;-84
2021/08/30 09:24:40;;;;;;;28.33;25.27;;;;;;;;;;5018464;28;20463;-81
2021/08/30 09:27:06;;;;;;;28.50;25.60;;;;;;;;;;5036024;28;20437;-82
2021/08/30 09:29:33;;;;;;;29.13;26.00;;;;;;;;;;5036554;28;20812;-82
2021/08/30 09:32:00;;;;;;;31.10;25.77;;;;;;;;;;5037316;28;20491;-83
2021/08/30 09:34:32;;;;;;;28.00;25.07;;;;;;;;;;5037073;28;20383;-83
2021/08/30 09:36:59;;;;;;;31.40;28.00;;;;;;;;;;5036008;28;20383;-82
2021/08/30 09:39:25;;;;;;;34.47;29.00;;;;;;;;;;5018071;28;20446;-84
2021/08/30 09:41:52;;;;;;;38.30;32.50;;;;;;;;;;5036227;28;20788;-83
2021/08/30 09:44:22;;;;;;;35.77;29.70;;;;;;;;;;5036040;28;20877;-83
2021/08/30 09:46:48;;;;;;;39.70;33.47;;;;;;;;;;5036186;28;20423;-83
2021/08/30 09:49:14;;;;;;;34.97;31.30;;;;;;;;;;5035645;28;20972;-83
2021/08/30 09:51:40;;;;;;;37.10;30.37;;;;;;;;;;5036176;28;20412;-83
2021/08/30 09:54:08;;;;;;;35.27;31.47;;;;;;;;;;5035868;28;20392;-83
2021/08/30 09:56:38;;;;;;;34.37;30.73;;;;;;;;;;5036173;28;20409;-84
2021/08/30 09:59:08;;;;;;;36.13;32.20;;;;;;;;;;5018088;28;20448;-82
2021/08/30 10:01:38;;;;;;;39.83;33.50;;;;;;;;;;5035719;28;20412;-83
2021/08/30 10:04:08;;;;;;;47.20;34.40;;;;;;;;;;5017867;28;20514;-82
2021/08/30 10:06:35;;;;;;;39.90;33.13;;;;;;;;;;5035546;28;20815;-82
2021/08/30 10:09:02;;;;;;;37.60;33.50;;;;;;;;;;5034963;28;20429;-82
2021/08/30 10:11:28;;;;;;;36.83;28.90;;;;;;;;;;5035908;28;20405;-83
2021/08/30 10:13:55;;;;;;;37.30;30.73;;;;;;;;;;5018321;28;20444;-84
2021/08/30 10:16:21;;;;;;;32.17;28.60;;;;;;;;;;5035597;28;20417;-83
2021/08/30 10:18:48;;;;;;;32.90;29.60;;;;;;;;;;5034946;28;20417;-82
2021/08/30 10:21:17;;;;;;;30.77;27.47;;;;;;;;;;5035103;28;20409;-82
2021/08/30 10:23:45;;;;;;;29.60;25.20;;;;;;;;;;5034387;28;20470;-83
2021/08/30 10:26:13;;;;;;;28.60;25.47;;;;;;;;;;5035342;28;20420;-81
2021/08/30 10:28:40;;;;;;;27.63;24.13;;;;;;;;;;5034850;28;20756;-81
2021/08/30 10:31:26;;;;;;;29.70;24.70;;;;;;;;;;5034950;28;20413;-82
2021/08/30 10:33:56;;;;;;;27.30;24.30;;;;;;;;;;5034770;28;20413;-81
2021/08/30 10:36:24;;;;;;;30.70;23.87;;;;;;;;;;5034869;28;20423;-83
2021/08/30 10:39:07;;;;;;;29.07;24.30;;;;;;;;;;5034576;28;20413;-83
2021/08/30 10:41:38;;;;;;;28.70;22.13;;;;;;;;;;5035010;28;20409;-81
2021/08/30 10:44:12;;;;;;;26.70;22.23;;;;;;;;;;5034761;28;20506;-83
2021/08/30 10:46:41;;;;;;;25.00;22.20;;;;;;;;;;5035093;28;20404;-82
2021/08/30 10:49:16;;;;;;;23.70;21.20;;;;;;;;;;5016521;28;20459;-85
2021/08/30 10:51:42;;;;;;;21.77;19.57;;;;;;;;;;5034691;28;20478;-85
2021/08/30 10:54:13;;;;;;;21.93;19.57;;;;;;;;;;5034949;28;20409;-82
2021/08/30 10:56:39;;;;;;;20.87;18.70;;;;;;;;;;5034719;28;20493;-84
2021/08/30 10:59:14;;;;;;;19.97;17.87;;;;;;;;;;5034204;28;20437;-85
2021/08/30 11:01:51;;;;;;;21.70;19.43;;;;;;;;;;5034869;28;20405;-83
2021/08/30 11:04:17;;;;;;;23.13;19.07;;;;;;;;;;5034591;28;20495;-84
2021/08/30 11:06:44;;;;;;;20.43;18.30;;;;;;;;;;5034568;28;20447;-82
2021/08/30 11:09:19;;;;;;;23.70;19.67;;;;;;;;;;5034239;28;20425;-84
2021/08/30 11:11:45;;;;;;;21.50;18.00;;;;;;;;;;5034435;28;20398;-81
2021/08/30 11:14:11;;;;;;;20.00;18.10;;;;;;;;;;5034373;28;20417;-83
2021/08/30 11:16:38;;;;;;;19.67;17.67;;;;;;;;;;5034209;28;20825;-82
2021/08/30 11:19:09;;;;;;;20.80;18.60;;;;;;;;;;5033838;28;20773;-83
2021/08/30 11:21:38;;;;;;;20.60;18.60;;;;;;;;;;5034399;28;20852;-81
2021/08/30 11:24:05;;;;;;;19.10;17.20;;;;;;;;;;5016388;28;20473;-82
2021/08/30 11:26:31;;;;;;;23.00;16.80;;;;;;;;;;5034102;28;20391;-84
2021/08/30 11:28:58;;;;;;;20.70;16.83;;;;;;;;;;5015982;28;20910;-81
2021/08/30 11:31:25;;;;;;;17.67;15.67;;;;;;;;;;5033859;28;20395;-81
2021/08/30 11:33:51;;;;;;;20.10;18.03;;;;;;;;;;5033508;28;20409;-81
2021/08/30 11:36:17;;;;;;;17.60;15.40;;;;;;;;;;5033778;28;20413;-83
2021/08/30 11:38:52;;;;;;;19.97;17.20;;;;;;;;;;5033452;28;20446;-82
2021/08/30 11:41:19;;;;;;;19.27;17.27;;;;;;;;;;5033759;28;20411;-81
2021/08/30 11:43:46;;;;;;;19.73;17.37;;;;;;;;;;5033454;28;20463;-82
2021/08/30 11:46:11;;;;;;;21.87;17.60;;;;;;;;;;5033758;28;20482;-81
2021/08/30 11:48:37;;;;;;;19.83;17.73;;;;;;;;;;5033253;28;20384;-81
2021/08/30 11:51:04;;;;;;;19.93;17.83;;;;;;;;;;5033902;28;20455;-81
2021/08/30 11:53:30;;;;;;;21.73;18.53;;;;;;;;;;5034026;28;20375;-81
2021/08/30 11:55:56;;;;;;;20.53;17.63;;;;;;;;;;5015790;28;20850;-81
2021/08/30 11:58:30;;;;;;;19.60;17.57;;;;;;;;;;5033724;28;20500;-83
2021/08/30 12:01:04;;;;;;;19.23;16.97;;;;;;;;;;5033225;28;20436;-81
2021/08/30 12:03:43;;;;;;;19.70;17.40;;;;;;;;;;5033600;28;20815;-81
2021/08/30 12:06:16;;;;;;;19.17;17.27;;;;;;;;;;5033470;28;20394;-82
2021/08/30 12:09:00;;;;;;;19.37;17.00;;;;;;;;;;5033171;28;20471;-81
2021/08/30 12:11:27;;;;;;;19.33;16.93;;;;;;;;;;5033561;28;20463;-82
2021/08/30 12:13:59;;;;;;;18.57;16.53;;;;;;;;;;5033412;28;20413;-81
2021/08/30 12:16:26;;;;;;;18.50;15.53;;;;;;;;;;5033319;28;20452;-82
2021/08/30 12:18:54;;;;;;;18.03;15.07;;;;;;;;;;5015700;28;20487;-83
2021/08/30 12:21:33;;;;;;;18.23;15.53;;;;;;;;;;5015796;28;20421;-83
2021/08/30 12:23:59;;;;;;;18.10;14.57;;;;;;;;;;5033218;28;20541;-82
2021/08/30 12:26:25;;;;;;;19.17;16.00;;;;;;;;;;5038035;28;20388;-83
2021/08/30 12:28:55;;;;;;;21.07;15.93;;;;;;;;;;5034955;28;20412;-82
2021/08/30 12:31:32;;;;;;;18.90;15.27;;;;;;;;;;5035269;28;20405;-82
2021/08/30 12:34:17;;;;;;;14.90;13.43;;;;;;;;;;5034868;28;20409;-82
2021/08/30 12:36:47;;;;;;;20.17;15.77;;;;;;;;;;5035506;28;20421;-81
2021/08/30 12:39:13;;;;;;;17.77;15.97;;;;;;;;;;5016908;28;20576;-81
2021/08/30 12:41:39;;;;;;;15.43;13.87;;;;;;;;;;5036361;28;20412;-81
2021/08/30 12:44:05;;;;;;;16.07;14.13;;;;;;;;;;5033774;28;21033;-82
2021/08/30 12:46:31;;;;;;;16.60;14.60;;;;;;;;;;5036043;28;20423;-81
2021/08/30 12:48:59;;;;;;;17.00;13.37;;;;;;;;;;5036936;28;20375;-83
2021/08/30 12:51:25;;;;;;;14.77;13.07;;;;;;;;;;5037335;28;20401;-82
2021/08/30 12:53:52;;;;;;;14.13;12.27;;;;;;;;;;5037478;28;20470;-81
2021/08/30 12:56:18;;;;;;;17.13;12.50;;;;;;;;;;5037456;28;20432;-82
2021/08/30 12:58:44;;;;;;;12.67;11.47;;;;;;;;;;5036831;28;20387;-81
2021/08/30 13:01:10;;;;;;;12.60;10.97;;;;;;;;;;5036990;28;20457;-83
2021/08/30 13:03:37;;;;;;;11.97;10.87;;;;;;;;;;5036985;28;20529;-82
2021/08/30 13:06:03;;;;;;;12.47;11.17;;;;;;;;;;5037322;28;20379;-81
2021/08/30 13:08:29;;;;;;;10.73;9.47;;;;;;;;;;5037320;28;20376;-83
2021/08/30 13:10:55;;;;;;;10.90;9.50;;;;;;;;;;5036415;28;20443;-82
2021/08/30 13:13:21;;;;;;;10.10;9.17;;;;;;;;;;5036483;28;20782;-82
2021/08/30 13:15:48;;;;;;;12.80;8.73;;;;;;;;;;5037054;28;20779;-82
2021/08/30 13:18:14;;;;;;;9.43;8.63;;;;;;;;;;5037185;28;20800;-82
2021/08/30 13:20:47;;;;;;;9.60;8.70;;;;;;;;;;5035841;28;20430;-82
2021/08/30 13:23:14;;;;;;;11.20;9.33;;;;;;;;;;5036380;28;20460;-83
2021/08/30 13:25:41;;;;;;;10.40;9.30;;;;;;;;;;5018721;28;20413;-83
2021/08/30 13:28:07;;;;;;;9.50;8.57;;;;;;;;;;5036143;28;20487;-82
2021/08/30 13:30:34;;;;;;;12.90;9.40;;;;;;;;;;5035672;28;20828;-82
2021/08/30 13:33:00;;;;;;;8.67;7.87;;;;;;;;;;5036082;28;20460;-83
2021/08/30 13:35:27;;;;;;;11.30;8.47;;;;;;;;;;5036060;28;20493;-83
2021/08/30 13:37:56;;;;;;;8.37;7.67;;;;;;;;;;5035934;28;20415;-83
2021/08/30 13:40:22;;;;;;;9.60;8.70;;;;;;;;;;5035383;28;20885;-82
2021/08/30 13:42:48;;;;;;;8.27;7.47;;;;;;;;;;5035687;28;20756;-83
2021/08/30 13:45:15;;;;;;;8.67;7.80;;;;;;;;;;5035714;28;20459;-82
2021/08/30 13:47:42;;;;;;;8.80;7.90;;;;;;;;;;5035919;28;20405;-84
2021/08/30 13:50:08;;;;;;;9.00;8.10;;;;;;;;;;5017591;28;20432;-83
2021/08/30 13:52:34;;;;;;;9.03;8.17;;;;;;;;;;5035543;28;20420;-84
2021/08/30 13:55:00;;;;;;;12.13;8.60;;;;;;;;;;5035536;28;20413;-83
2021/08/30 13:57:26;;;;;;;9.03;7.93;;;;;;;;;;5035478;28;20401;-82
2021/08/30 13:59:52;;;;;;;7.83;7.17;;;;;;;;;;5035428;28;20432;-82
2021/08/30 14:02:18;;;;;;;7.83;7.07;;;;;;;;;;5035554;28;20893;-82
2021/08/30 14:04:44;;;;;;;9.23;7.90;;;;;;;;;;5035547;28;20464;-82
2021/08/30 14:07:10;;;;;;;8.10;7.40;;;;;;;;;;5035623;28;20408;-82
2021/08/30 14:09:37;;;;;;;9.90;7.33;;;;;;;;;;5035157;28;20424;-82
2021/08/30 14:12:03;;;;;;;7.80;7.00;;;;;;;;;;5035518;28;20455;-82
2021/08/30 14:14:29;;;;;;;7.60;6.90;;;;;;;;;;5035380;28;20409;-82
2021/08/30 14:16:55;;;;;;;8.13;6.87;;;;;;;;;;5035124;28;20417;-82
2021/08/30 14:19:26;;;;;;;8.27;7.57;;;;;;;;;;5034852;28;20491;-82
2021/08/30 14:21:52;;;;;;;7.97;7.27;;;;;;;;;;5035513;28;20419;-82